Latest Coastal Weather Observations for Geelong Racecourse

IDV60701

Issued at 5:25 am EST Wednesday 17 September 2014 (issued every 10 minutes, with the page automatically refreshed every 10 minutes)

About coastal observations | Map of coastal stations | Coastal observations for VIC | Marine services | Other Formats
Station Details ID: 087184 Name: GEELONG RACECOURSE Lat: -38.17 Lon: 144.38 Height: 12.9 m
Data from the previous 72 hours. | See also: Recent months at Geelong Racecourse
Date/Time
EST
Temp

°C
Wind Pressure Rain
since 9am
mm
Weather Cloud Vis
km
Sea
Height
m
Swell
Dir
 
Speed
knots
Gust
knots
hPa Trend Height
m
Period
s
Dir
17/05:00am 9.8 WNW 11 18 1012.2 - 0.2 - - - - - - -
17/04:30am 9.7 W 8 15 1012.0 - 0.2 - - - - - - -
17/04:00am 9.1 WNW 1 4 1012.1 - 0.2 - - - - - - -
17/03:30am 8.7 NNW 1 2 1012.1 - 0.2 - - - - - - -
17/03:00am 8.7 NW 4 6 1012.4 - 0.2 - - - - - - -
17/02:30am 8.8 NW 6 8 1012.5 - 0.2 - - - - - - -
17/02:00am 8.4 NW 7 9 1012.6 - 0.2 - - - - - - -
17/01:30am 8.3 NW 8 11 1012.8 - 0.2 - - - - - - -
17/01:00am 8.4 NW 8 11 1012.9 - 0.2 - - - - - - -
17/12:30am 8.7 NW 8 10 1013.0 - 0.2 - - - - - - -
17/12:00am 8.7 NW 7 9 1013.1 - 0.2 - - - - - - -
 
Date/Time
EST
Temp

°C
Wind Pressure Rain
since 9am
mm
Weather Cloud Vis
km
Sea
Height
m
Swell
Dir
 
Speed
knots
Gust
knots
hPa Trend Height
m
Period
s
Dir
16/11:30pm 8.5 WNW 7 10 1013.1 - 0.2 - - - - - - -
16/11:00pm 8.3 NW 5 10 1013.3 - 0.2 - - - - - - -
16/10:30pm 8.7 NNW 4 6 1013.5 - 0.2 - - - - - - -
16/10:00pm 8.9 NW 5 6 1013.9 - 0.2 - - - - - - -
16/09:30pm 9.3 NW 6 9 1013.7 - 0.2 - - - - - - -
16/09:00pm 9.4 WNW 2 2 1013.6 - 0.2 - - - - - - -
16/08:30pm 9.4 W 2 3 1013.5 - 0.2 - - - - - - -
16/08:00pm 9.4 W 4 6 1013.5 - 0.2 - - - - - - -
16/07:30pm 9.9 WSW 4 5 1013.2 - 0.2 - - - - - - -
16/07:00pm 10.7 W 6 8 1012.8 - 0.2 - - - - - - -
16/06:30pm 11.1 WSW 4 7 1012.6 - 0.2 - - - - - - -
16/06:00pm 12.3 SSW 7 11 1012.4 - 0.2 - - - - - - -
16/05:30pm 13.4 SSW 10 12 1012.0 - 0.2 - - - - - - -
16/05:00pm 14.5 WSW 11 16 1011.5 - 0.2 - - - - - - -
16/04:30pm 15.4 SSW 7 12 1011.2 - 0.2 - - - - - - -
16/04:00pm 13.7 SW 7 10 1011.0 - 0.2 - - - - - - -
16/03:30pm 13.2 SSW 11 16 1011.0 - 0.0 - - - - - - -
16/03:00pm 14.2 SSW 11 14 1010.6 - 0.0 - - - - - - -
16/02:30pm 14.4 SW 9 12 1010.4 - 0.0 - - - - - - -
16/02:00pm 13.8 SW 12 16 1010.2 - 0.0 - - - - - - -
16/01:30pm 14.2 SSW 13 18 1010.0 - 0.0 - - - - - - -
16/01:17pm 14.2 SSW 15 25 1010.0 - 0.0 - - - - - - -
16/01:00pm 14.2 SSW 15 22 1010.1 - 0.0 - - - - - - -
16/12:30pm 13.4 SSW 15 20 1010.3 - 0.0 - - - - - - -
16/12:00pm 13.4 SW 14 21 1010.4 - 0.0 - - - - - - -
16/11:30am 13.9 SSW 12 19 1010.5 - 0.0 - - - - - - -
16/11:00am 14.9 SW 10 16 1010.3 - 0.0 - - - - - - -
16/10:30am 14.3 SW 10 14 1010.4 - 0.0 - - - - - - -
16/10:00am 14.4 WSW 9 16 1010.3 - 0.0 - - - - - - -
16/09:30am 14.0 WSW 7 11 1010.1 - 0.0 - - - - - - -
16/09:00am 13.4 WSW 7 9 1010.1 - 0.0 - - - - - - -
16/08:30am 13.0 WSW 6 9 1009.9 - 0.0 - - - - - - -
16/08:00am 12.9 WSW 6 9 1009.7 - 0.0 - - - - - - -
16/07:30am 12.8 WSW 5 8 1009.3 - 0.0 - - - - - - -
16/07:00am 12.2 WSW 5 7 1009.3 - 0.0 - - - - - - -
16/06:30am 12.0 WSW 6 8 1009.1 - 0.0 - - - - - - -
16/06:00am 12.1 WSW 6 9 1008.8 - 0.0 - - - - - - -
16/05:30am 12.1 WSW 6 9 1008.7 - 0.0 - - - - - - -
16/05:00am 12.1 WSW 5 8 1008.5 - 0.0 - - - - - - -
16/04:30am 11.6 W 4 6 1008.3 - 0.0 - - - - - - -
16/04:00am 11.4 WSW 3 5 1008.1 - 0.0 - - - - - - -
16/03:30am 10.9 SSW 4 5 1007.9 - 0.0 - - - - - - -
16/03:00am 10.6 SSW 2 3 1007.9 - 0.0 - - - - - - -
16/02:30am 11.2 S 2 4 1008.2 - 0.0 - - - - - - -
16/02:00am 11.8 S 3 4 1008.5 - 0.0 - - - - - - -
16/01:30am 12.0 SSE 3 5 1008.9 - 0.0 - - - - - - -
16/01:00am 11.8 SE 3 5 1009.0 - 0.0 - - - - - - -
16/12:30am 11.4 S 4 5 1009.3 - 0.0 - - - - - - -
16/12:00am 11.4 S 4 5 1009.4 - 0.0 - - - - - - -
 
Date/Time
EST
Temp

°C
Wind Pressure Rain
since 9am
mm
Weather Cloud Vis
km
Sea
Height
m
Swell
Dir
 
Speed
knots
Gust
knots
hPa Trend Height
m
Period
s
Dir
15/11:30pm 11.6 S 3 6 1009.6 - 0.0 - - - - - - -
15/11:00pm 12.3 SSE 5 6 1009.7 - 0.0 - - - - - - -
15/10:30pm 12.6 SSE 4 6 1010.0 - 0.0 - - - - - - -
15/10:00pm 12.9 SE 4 7 1010.2 - 0.0 - - - - - - -
15/09:30pm 13.0 S 4 6 1010.6 - 0.0 - - - - - - -
15/09:00pm 12.9 S 6 9 1010.5 - 0.0 - - - - - - -
15/08:30pm 12.4 S 4 6 1010.4 - 0.0 - - - - - - -
15/08:00pm 12.2 SSW 4 6 1010.3 - 0.0 - - - - - - -
15/07:30pm 12.0 SSW 2 4 1010.2 - 0.0 - - - - - - -
15/07:00pm 12.7 S 4 5 1010.3 - 0.0 - - - - - - -
15/06:30pm 12.9 SSW 5 6 1010.3 - 0.0 - - - - - - -
15/06:00pm 13.3 S 5 7 1010.2 - 0.0 - - - - - - -
15/05:30pm 13.7 SSE 4 6 1010.1 - 0.0 - - - - - - -
15/05:00pm 13.9 SSE 7 10 1009.9 - 0.0 - - - - - - -
15/04:30pm 13.9 SSE 7 10 1010.1 - 0.0 - - - - - - -
15/04:00pm 13.8 SSE 6 9 1010.4 - 0.0 - - - - - - -
15/03:30pm 13.8 SSE 8 11 1010.7 - 0.0 - - - - - - -
15/03:00pm 13.8 SSE 7 11 1011.0 - 0.0 - - - - - - -
15/02:30pm 14.2 SSE 8 10 1011.5 - 0.0 - - - - - - -
15/02:00pm 14.1 SSE 9 13 1011.6 - 0.0 - - - - - - -
15/01:30pm 13.8 SE 9 13 1012.2 - 0.0 - - - - - - -
15/01:00pm 13.8 SSE 7 11 1012.7 - 0.0 - - - - - - -
15/12:30pm 14.2 SSE 7 11 1013.5 - 0.0 - - - - - - -
15/12:00pm 14.5 ESE 6 9 1013.7 - 0.0 - - - - - - -
15/11:30am 14.2 E 5 9 1014.1 - 0.0 - - - - - - -
15/11:00am 13.2 ESE 5 8 1014.8 - 0.0 - - - - - - -
15/10:30am 13.2 E 4 6 1015.4 - 0.0 - - - - - - -
15/10:00am 13.0 ESE 5 7 1015.8 - 0.0 - - - - - - -
15/09:30am 12.2 E 5 7 1016.4 - 0.0 - - - - - - -
15/09:00am 12.0 E 3 5 1016.6 - 1.4 - - - - - - -
15/08:30am 11.6 E 3 4 1016.8 - 1.4 - - - - - - -
15/08:00am 11.1 ESE 2 4 1016.8 - 1.4 - - - - - - -
15/07:30am 10.8 ESE 2 4 1016.6 - 1.4 - - - - - - -
15/07:00am 10.6 ESE 2 4 1016.4 - 1.4 - - - - - - -
15/06:30am 10.6 NNW 3 5 1016.3 - 1.4 - - - - - - -
15/06:00am 10.4 WNW 1 2 1016.9 - 0.6 Recent precip. - - - - - -
15/05:30am 10.1 CALM 0 0 1017.0 - 0.0 - - - - - - -
15/05:00am 9.9 CALM 0 2 1016.5 - 0.0 - - - - - - -
15/04:30am 9.7 W 1 2 1017.0 - 0.0 - - - - - - -
15/04:00am 9.8 N 1 2 1016.7 - 0.0 - - - - - - -
15/03:30am 9.9 SE 1 2 1016.5 - 0.0 - - - - - - -
15/03:00am 9.3 SSE 3 4 1016.9 - 0.0 - - - - - - -
15/02:30am 9.1 CALM 0 0 1017.4 - 0.0 - - - - - - -
15/02:00am 9.7 CALM 0 0 1017.8 - 0.0 - - - - - - -
15/01:30am 9.5 WSW 1 3 1018.1 - 0.0 - - - - - - -
15/01:00am 9.8 CALM 0 0 1018.5 - 0.0 - - - - - - -
15/12:30am 10.1 CALM 0 0 1018.8 - 0.0 - - - - - - -
15/12:00am 10.1 CALM 0 0 1018.9 - 0.0 - - - - - - -
 
Date/Time
EST
Temp

°C
Wind Pressure Rain
since 9am
mm
Weather Cloud Vis
km
Sea
Height
m
Swell
Dir
 
Speed
knots
Gust
knots
hPa Trend Height
m
Period
s
Dir
14/11:30pm 10.1 CALM 0 0 1019.3 - 0.0 - - - - - - -
14/11:00pm 10.5 W 1 2 1019.7 - 0.0 - - - - - - -
14/10:30pm 10.5 S 2 2 1020.0 - 0.0 - - - - - - -
14/10:00pm 10.4 CALM 0 0 1020.0 - 0.0 - - - - - - -
14/09:30pm 10.4 CALM 0 0 1019.8 - 0.0 - - - - - - -
14/09:00pm 10.6 SSE 2 2 1019.7 - 0.0 - - - - - - -
14/08:30pm 10.5 SSE 1 2 1019.6 - 0.0 - - - - - - -
14/08:00pm 11.0 SSE 2 3 1019.5 - 0.0 - - - - - - -
14/07:30pm 11.2 S 5 7 1019.3 - 0.0 - - - - - - -
14/07:00pm 11.2 S 5 6 1019.2 - 0.0 - - - - - - -
14/06:30pm 11.7 S 6 8 1019.1 - 0.0 - - - - - - -
14/06:00pm 12.4 S 8 11 1019.0 - 0.0 - - - - - - -
14/05:30pm 13.3 S 10 14 1018.8 - 0.0 - - - - - - -
14/05:00pm 13.9 S 9 12 1018.7 - 0.0 - - - - - - -
14/04:30pm 14.4 S 11 14 1018.6 - 0.0 - - - - - - -
14/04:00pm 15.2 S 10 16 1018.8 - 0.0 - - - - - - -
14/03:30pm 15.2 S 11 14 1018.8 - 0.0 - - - - - - -
14/03:00pm 15.4 S 11 14 1018.8 - 0.0 - - - - - - -
14/02:30pm 16.4 S 10 14 1018.8 - 0.0 - - - - - - -
14/02:00pm 16.9 S 10 13 1018.8 - 0.0 - - - - - - -
14/01:30pm 16.5 S 9 13 1019.0 - 0.0 - - - - - - -
14/01:00pm 18.4 ESE 3 6 1019.2 - 0.0 - - - - - - -
14/12:30pm 18.0 SW 4 5 1019.8 - 0.0 - - - - - - -
14/12:00pm 17.5 N 3 5 1020.3 - 0.0 - - - - - - -
14/11:30am 16.5 N 4 7 1020.6 - 0.0 - - - - - - -
14/11:00am 17.1 NNW 2 3 1020.9 - 0.0 - - - - - - -
14/10:30am 15.3 WSW 2 4 1021.4 - 0.0 - - - - - - -
14/10:00am 15.4 NNW 1 2 1021.8 - 0.0 - - - - - - -
14/09:30am 13.2 W 2 3 1021.9 - 0.0 - - - - - - -
14/09:00am 11.7 NNW 3 5 1021.9 - 0.0 - - - - - - -
14/08:30am 10.6 W 2 3 1021.9 - 0.0 - - - - - - -
14/08:00am 9.9 NNW 2 4 1021.6 - 0.0 - - - - - - -
14/07:30am 7.8 NW 2 2 1021.5 - 0.0 - - - - - - -
14/07:00am 6.6 NNW 1 1 1021.2 - 0.0 - - - - - - -
14/06:30am 6.4 N 2 2 1021.0 - 0.0 - - - - - - -
14/06:00am 6.2 NNW 2 2 1021.0 - 0.0 - - - - - - -
14/05:30am 6.0 W 2 4 1021.0 - 0.0 - - - - - - -

Other Formats:

Comma delimited format used in spreadsheet applications
http://www.bom.gov.au/fwo/IDV60701/IDV60701.94857.axf

JavaScript Object Notation format (JSON) in row-major order
http://www.bom.gov.au/fwo/IDV60701/IDV60701.94857.json